sensor_id;sensor_type;location;lat;lon;timestamp;P1;durP1;ratioP1;P2;durP2;ratioP2
61739;SDS011;47645;45.288;12.038;2022-08-26T00:00:46;9.6;;;5.8;;
61739;SDS011;47645;45.288;12.038;2022-08-26T00:10:47;12.2;;;5.8;;
61739;SDS011;47645;45.288;12.038;2022-08-26T00:20:49;8.3;;;4.8;;
61739;SDS011;47645;45.288;12.038;2022-08-26T00:30:50;9.2;;;5.1;;
61739;SDS011;47645;45.288;12.038;2022-08-26T00:40:52;8.3;;;5.2;;
61739;SDS011;47645;45.288;12.038;2022-08-26T00:50:55;9.4;;;4.8;;
61739;SDS011;47645;45.288;12.038;2022-08-26T01:00:54;5.8;;;4.2;;
61739;SDS011;47645;45.288;12.038;2022-08-26T01:10:55;9.2;;;4.0;;
61739;SDS011;47645;45.288;12.038;2022-08-26T01:20:57;6.4;;;3.6;;
61739;SDS011;47645;45.288;12.038;2022-08-26T01:30:58;7.9;;;3.5;;
61739;SDS011;47645;45.288;12.038;2022-08-26T01:40:59;7.5;;;3.6;;
61739;SDS011;47645;45.288;12.038;2022-08-26T01:51:00;6.7;;;3.7;;
61739;SDS011;47645;45.288;12.038;2022-08-26T02:01:01;5.8;;;3.4;;
61739;SDS011;47645;45.288;12.038;2022-08-26T02:11:03;7.3;;;3.7;;
61739;SDS011;47645;45.288;12.038;2022-08-26T02:21:04;5.6;;;3.4;;
61739;SDS011;47645;45.288;12.038;2022-08-26T02:31:05;6.4;;;3.6;;
61739;SDS011;47645;45.288;12.038;2022-08-26T02:41:07;6.0;;;4.0;;
61739;SDS011;47645;45.288;12.038;2022-08-26T02:51:08;6.0;;;4.1;;
61739;SDS011;47645;45.288;12.038;2022-08-26T03:01:17;5.3;;;3.9;;
61739;SDS011;47645;45.288;12.038;2022-08-26T03:11:10;5.1;;;3.2;;
61739;SDS011;47645;45.288;12.038;2022-08-26T03:21:13;6.5;;;3.7;;
61739;SDS011;47645;45.288;12.038;2022-08-26T03:31:13;7.1;;;3.9;;
61739;SDS011;47645;45.288;12.038;2022-08-26T03:41:14;7.0;;;3.8;;
61739;SDS011;47645;45.288;12.038;2022-08-26T03:51:17;6.6;;;4.2;;
61739;SDS011;47645;45.288;12.038;2022-08-26T04:01:16;7.4;;;4.1;;
61739;SDS011;47645;45.288;12.038;2022-08-26T04:11:19;6.8;;;3.8;;
61739;SDS011;47645;45.288;12.038;2022-08-26T04:21:19;10.2;;;4.5;;
61739;SDS011;47645;45.288;12.038;2022-08-26T04:31:20;6.6;;;4.6;;
61739;SDS011;47645;45.288;12.038;2022-08-26T04:41:21;9.2;;;4.7;;
61739;SDS011;47645;45.288;12.038;2022-08-26T04:51:26;9.3;;;5.4;;
61739;SDS011;47645;45.288;12.038;2022-08-26T05:01:23;7.1;;;4.7;;
61739;SDS011;47645;45.288;12.038;2022-08-26T05:11:25;9.6;;;4.8;;
61739;SDS011;47645;45.288;12.038;2022-08-26T05:21:26;9.5;;;5.7;;
61739;SDS011;47645;45.288;12.038;2022-08-26T05:41:18;11.9;;;6.2;;
61739;SDS011;47645;45.288;12.038;2022-08-26T05:51:18;8.1;;;5.6;;
61739;SDS011;47645;45.288;12.038;2022-08-26T06:01:20;9.7;;;5.7;;
61739;SDS011;47645;45.288;12.038;2022-08-26T06:11:22;11.3;;;5.5;;
61739;SDS011;47645;45.288;12.038;2022-08-26T06:26:50;8.6;;;5.5;;
61739;SDS011;47645;45.288;12.038;2022-08-26T06:31:49;12.1;;;5.5;;
61739;SDS011;47645;45.288;12.038;2022-08-26T06:41:51;10.5;;;5.8;;
61739;SDS011;47645;45.288;12.038;2022-08-26T06:51:52;8.6;;;5.4;;
61739;SDS011;47645;45.288;12.038;2022-08-26T07:01:53;9.6;;;5.0;;
61739;SDS011;47645;45.288;12.038;2022-08-26T07:11:55;7.7;;;5.6;;
61739;SDS011;47645;45.288;12.038;2022-08-26T07:21:56;8.7;;;4.8;;
61739;SDS011;47645;45.288;12.038;2022-08-26T07:31:58;9.6;;;5.1;;
61739;SDS011;47645;45.288;12.038;2022-08-26T07:42:00;7.3;;;5.4;;
61739;SDS011;47645;45.288;12.038;2022-08-26T07:52:01;8.4;;;5.3;;
61739;SDS011;47645;45.288;12.038;2022-08-26T08:02:02;8.5;;;5.5;;
61739;SDS011;47645;45.288;12.038;2022-08-26T08:12:05;9.2;;;5.1;;
61739;SDS011;47645;45.288;12.038;2022-08-26T08:22:05;9.6;;;5.1;;
61739;SDS011;47645;45.288;12.038;2022-08-26T08:32:07;8.4;;;5.2;;
61739;SDS011;47645;45.288;12.038;2022-08-26T08:42:13;6.3;;;4.4;;
61739;SDS011;47645;45.288;12.038;2022-08-26T08:52:12;9.0;;;4.7;;
61739;SDS011;47645;45.288;12.038;2022-08-26T09:02:13;11.5;;;5.0;;
61739;SDS011;47645;45.288;12.038;2022-08-26T09:12:21;8.6;;;5.1;;
61739;SDS011;47645;45.288;12.038;2022-08-26T09:22:26;9.4;;;5.7;;
61739;SDS011;47645;45.288;12.038;2022-08-26T09:32:21;8.0;;;5.0;;
61739;SDS011;47645;45.288;12.038;2022-08-26T09:42:20;7.7;;;4.6;;
61739;SDS011;47645;45.288;12.038;2022-08-26T09:52:19;7.9;;;5.1;;
61739;SDS011;47645;45.288;12.038;2022-08-26T10:02:24;8.9;;;4.9;;
61739;SDS011;47645;45.288;12.038;2022-08-26T10:12:22;8.9;;;5.1;;
61739;SDS011;47645;45.288;12.038;2022-08-26T10:22:25;7.7;;;4.8;;
61739;SDS011;47645;45.288;12.038;2022-08-26T10:32:26;8.0;;;4.1;;
61739;SDS011;47645;45.288;12.038;2022-08-26T10:42:28;9.9;;;4.7;;
61739;SDS011;47645;45.288;12.038;2022-08-26T10:52:32;8.1;;;3.9;;
61739;SDS011;47645;45.288;12.038;2022-08-26T11:02:32;7.8;;;4.7;;
61739;SDS011;47645;45.288;12.038;2022-08-26T11:12:49;9.4;;;5.3;;
61739;SDS011;47645;45.288;12.038;2022-08-26T11:22:35;8.0;;;4.8;;
61739;SDS011;47645;45.288;12.038;2022-08-26T11:32:45;12.0;;;4.8;;
61739;SDS011;47645;45.288;12.038;2022-08-26T11:42:41;9.7;;;5.0;;
61739;SDS011;47645;45.288;12.038;2022-08-26T11:52:40;8.6;;;4.8;;
61739;SDS011;47645;45.288;12.038;2022-08-26T12:02:42;6.2;;;3.7;;
61739;SDS011;47645;45.288;12.038;2022-08-26T12:12:45;8.0;;;4.3;;
61739;SDS011;47645;45.288;12.038;2022-08-26T12:22:47;7.1;;;3.9;;
61739;SDS011;47645;45.288;12.038;2022-08-26T12:32:50;7.5;;;4.4;;
61739;SDS011;47645;45.288;12.038;2022-08-26T12:42:51;5.8;;;3.8;;
61739;SDS011;47645;45.288;12.038;2022-08-26T12:52:55;8.4;;;4.4;;
61739;SDS011;47645;45.288;12.038;2022-08-26T13:02:55;8.4;;;4.5;;
61739;SDS011;47645;45.288;12.038;2022-08-26T13:12:58;8.0;;;4.3;;
61739;SDS011;47645;45.288;12.038;2022-08-26T13:23:02;10.4;;;4.5;;
61739;SDS011;47645;45.288;12.038;2022-08-26T13:33:01;9.4;;;4.7;;
61739;SDS011;47645;45.288;12.038;2022-08-26T13:43:04;10.4;;;4.3;;
61739;SDS011;47645;45.288;12.038;2022-08-26T13:53:06;7.9;;;4.1;;
61739;SDS011;47645;45.288;12.038;2022-08-26T14:03:09;10.0;;;4.5;;
61739;SDS011;47645;45.288;12.038;2022-08-26T14:13:10;6.2;;;4.3;;
61739;SDS011;47645;45.288;12.038;2022-08-26T14:23:12;6.2;;;4.1;;
61739;SDS011;47645;45.288;12.038;2022-08-26T14:33:15;5.9;;;3.8;;
61739;SDS011;47645;45.288;12.038;2022-08-26T14:43:16;8.5;;;4.2;;
61739;SDS011;47645;45.288;12.038;2022-08-26T14:54:23;7.9;;;4.1;;
61739;SDS011;47645;45.288;12.038;2022-08-26T15:03:21;10.2;;;4.9;;
61739;SDS011;47645;45.288;12.038;2022-08-26T15:13:23;8.3;;;4.6;;
61739;SDS011;47645;45.288;12.038;2022-08-26T15:23:24;8.3;;;4.8;;
61739;SDS011;47645;45.288;12.038;2022-08-26T15:33:27;9.1;;;5.3;;
61739;SDS011;47645;45.288;12.038;2022-08-26T15:43:29;13.7;;;5.3;;
61739;SDS011;47645;45.288;12.038;2022-08-26T15:53:32;8.0;;;5.0;;
61739;SDS011;47645;45.288;12.038;2022-08-26T16:03:33;7.4;;;5.3;;
61739;SDS011;47645;45.288;12.038;2022-08-26T16:13:35;9.9;;;5.4;;
61739;SDS011;47645;45.288;12.038;2022-08-26T16:23:37;7.7;;;5.3;;
61739;SDS011;47645;45.288;12.038;2022-08-26T16:33:39;6.6;;;5.5;;
61739;SDS011;47645;45.288;12.038;2022-08-26T16:43:40;9.5;;;5.8;;
61739;SDS011;47645;45.288;12.038;2022-08-26T16:53:43;8.0;;;5.7;;
61739;SDS011;47645;45.288;12.038;2022-08-26T17:03:44;9.9;;;6.5;;
61739;SDS011;47645;45.288;12.038;2022-08-26T17:13:46;8.4;;;5.7;;
61739;SDS011;47645;45.288;12.038;2022-08-26T17:23:48;10.4;;;7.3;;
61739;SDS011;47645;45.288;12.038;2022-08-26T17:33:50;9.3;;;6.8;;
61739;SDS011;47645;45.288;12.038;2022-08-26T17:43:52;10.0;;;6.7;;
61739;SDS011;47645;45.288;12.038;2022-08-26T17:53:53;12.0;;;6.9;;
61739;SDS011;47645;45.288;12.038;2022-08-26T18:03:55;8.6;;;6.4;;
61739;SDS011;47645;45.288;12.038;2022-08-26T18:13:57;8.6;;;6.8;;
61739;SDS011;47645;45.288;12.038;2022-08-26T18:23:59;10.1;;;6.4;;
61739;SDS011;47645;45.288;12.038;2022-08-26T18:34:02;9.4;;;6.6;;
61739;SDS011;47645;45.288;12.038;2022-08-26T18:44:02;9.2;;;6.7;;
61739;SDS011;47645;45.288;12.038;2022-08-26T18:54:05;10.7;;;6.5;;
61739;SDS011;47645;45.288;12.038;2022-08-26T19:04:07;7.2;;;5.7;;
61739;SDS011;47645;45.288;12.038;2022-08-26T19:14:08;8.0;;;6.1;;
61739;SDS011;47645;45.288;12.038;2022-08-26T19:24:12;10.0;;;6.5;;
61739;SDS011;47645;45.288;12.038;2022-08-26T19:34:11;8.8;;;6.5;;
61739;SDS011;47645;45.288;12.038;2022-08-26T19:44:13;7.1;;;6.4;;
61739;SDS011;47645;45.288;12.038;2022-08-26T19:54:14;8.4;;;6.2;;
61739;SDS011;47645;45.288;12.038;2022-08-26T20:04:14;11.7;;;6.8;;
61739;SDS011;47645;45.288;12.038;2022-08-26T20:14:18;13.3;;;8.0;;
61739;SDS011;47645;45.288;12.038;2022-08-26T20:24:18;9.1;;;6.4;;
61739;SDS011;47645;45.288;12.038;2022-08-26T20:34:20;9.9;;;7.3;;
61739;SDS011;47645;45.288;12.038;2022-08-26T20:44:21;10.7;;;7.1;;
61739;SDS011;47645;45.288;12.038;2022-08-26T20:54:23;14.1;;;8.0;;
61739;SDS011;47645;45.288;12.038;2022-08-26T21:04:24;11.6;;;7.4;;
61739;SDS011;47645;45.288;12.038;2022-08-26T21:14:25;12.6;;;7.4;;
61739;SDS011;47645;45.288;12.038;2022-08-26T21:24:26;9.7;;;7.7;;
61739;SDS011;47645;45.288;12.038;2022-08-26T21:34:28;7.4;;;6.4;;
61739;SDS011;47645;45.288;12.038;2022-08-26T21:44:30;14.5;;;8.8;;
61739;SDS011;47645;45.288;12.038;2022-08-26T21:54:31;14.7;;;9.5;;
61739;SDS011;47645;45.288;12.038;2022-08-26T22:04:34;15.9;;;9.3;;
61739;SDS011;47645;45.288;12.038;2022-08-26T22:14:34;13.6;;;9.6;;
61739;SDS011;47645;45.288;12.038;2022-08-26T22:24:35;9.1;;;6.8;;
61739;SDS011;47645;45.288;12.038;2022-08-26T22:34:36;10.9;;;8.1;;
61739;SDS011;47645;45.288;12.038;2022-08-26T22:44:38;12.3;;;8.2;;
61739;SDS011;47645;45.288;12.038;2022-08-26T22:54:39;11.4;;;8.1;;
61739;SDS011;47645;45.288;12.038;2022-08-26T23:04:40;13.0;;;9.8;;
61739;SDS011;47645;45.288;12.038;2022-08-26T23:14:43;11.7;;;8.0;;
61739;SDS011;47645;45.288;12.038;2022-08-26T23:24:43;14.1;;;10.2;;
61739;SDS011;47645;45.288;12.038;2022-08-26T23:35:00;15.6;;;10.2;;
61739;SDS011;47645;45.288;12.038;2022-08-26T23:44:46;13.0;;;9.3;;
61739;SDS011;47645;45.288;12.038;2022-08-26T23:54:48;12.2;;;9.1;;
